createdAt,value
2023-05-24T00:00:08.562Z,9.26
2023-05-24T00:01:08.551Z,9.26
2023-05-24T00:02:08.536Z,9.20
2023-05-24T00:03:08.638Z,9.22
2023-05-24T00:04:08.586Z,9.20
2023-05-24T00:05:08.633Z,9.26
2023-05-24T00:06:08.496Z,9.17
2023-05-24T00:07:08.482Z,9.17
2023-05-24T00:08:08.479Z,9.15
2023-05-24T00:09:08.460Z,9.23
2023-05-24T00:10:08.449Z,9.26
2023-05-24T00:11:08.451Z,9.24
2023-05-24T00:12:08.435Z,9.22
2023-05-24T00:13:08.412Z,9.23
2023-05-24T00:14:08.404Z,9.23
2023-05-24T00:15:08.405Z,9.23
2023-05-24T00:16:08.405Z,9.20
2023-05-24T00:17:08.375Z,9.23
2023-05-24T00:18:08.514Z,9.23
2023-05-24T00:19:08.352Z,9.20
2023-05-24T00:20:08.375Z,9.23
2023-05-24T00:21:08.333Z,9.22
2023-05-24T00:22:08.320Z,9.19
2023-05-24T00:23:08.313Z,9.16
2023-05-24T00:24:08.295Z,9.22
2023-05-24T00:25:08.282Z,9.17
2023-05-24T00:26:08.268Z,9.19
2023-05-24T00:27:08.266Z,9.20
2023-05-24T00:28:08.264Z,9.24
2023-05-24T00:29:08.242Z,9.24
2023-05-24T00:30:08.246Z,9.23
2023-05-24T00:31:08.214Z,9.23
2023-05-24T00:32:08.226Z,9.16
2023-05-24T00:33:08.192Z,9.23
2023-05-24T00:34:08.180Z,9.19
2023-05-24T00:35:08.195Z,9.24
2023-05-24T00:36:08.210Z,9.20
2023-05-24T00:37:08.161Z,9.24
2023-05-24T00:38:08.137Z,9.26
2023-05-24T00:39:08.124Z,9.22
2023-05-24T00:40:08.113Z,9.17
2023-05-24T00:41:08.114Z,9.20
2023-05-24T00:42:08.105Z,9.17
2023-05-24T00:43:08.081Z,9.22
2023-05-24T00:44:08.069Z,9.22
2023-05-24T00:45:08.066Z,9.16
2023-05-24T00:46:08.100Z,9.19
2023-05-24T00:47:08.038Z,9.13
2023-05-24T00:48:08.059Z,9.13
2023-05-24T00:49:08.021Z,9.13
2023-05-24T00:50:07.999Z,9.13
2023-05-24T00:51:08.006Z,9.16
2023-05-24T00:52:08.008Z,9.16
2023-05-24T00:53:07.971Z,9.22
2023-05-24T00:54:07.976Z,9.19
2023-05-24T00:55:07.952Z,9.26
2023-05-24T00:56:07.944Z,9.22
2023-05-24T00:57:07.989Z,9.22
2023-05-24T00:58:07.949Z,9.23
2023-05-24T00:59:07.905Z,9.24
2023-05-24T01:00:07.903Z,9.22
2023-05-24T01:01:07.934Z,9.23
2023-05-24T01:02:07.886Z,9.23
2023-05-24T01:03:07.993Z,9.24
2023-05-24T01:04:07.853Z,9.24
2023-05-24T01:05:07.839Z,9.26
2023-05-24T01:06:07.976Z,9.31
2023-05-24T01:07:07.832Z,9.23
2023-05-24T01:08:07.868Z,9.24
2023-05-24T01:09:07.808Z,9.24
2023-05-24T01:10:07.782Z,9.26
2023-05-24T01:11:07.772Z,9.24
2023-05-24T01:12:07.776Z,9.26
2023-05-24T01:13:07.751Z,9.26
2023-05-24T01:14:07.744Z,9.24
2023-05-24T01:15:07.740Z,9.24
2023-05-24T01:16:07.802Z,9.26
2023-05-24T01:17:07.708Z,9.24
2023-05-24T01:18:07.959Z,9.26
2023-05-24T01:19:07.687Z,9.24
2023-05-24T01:20:07.756Z,9.23
2023-05-24T01:21:07.679Z,9.23
2023-05-24T01:22:07.649Z,9.24
2023-05-24T01:23:07.643Z,9.26
2023-05-24T01:24:07.652Z,9.23
2023-05-24T01:25:07.624Z,9.26
2023-05-24T01:26:07.605Z,9.24
2023-05-24T01:27:07.619Z,9.27
2023-05-24T01:28:07.590Z,9.26
2023-05-24T01:29:07.593Z,9.32
2023-05-24T01:30:07.566Z,9.26
2023-05-24T01:31:07.560Z,9.32
2023-05-24T01:32:07.543Z,9.34
2023-05-24T01:33:07.559Z,9.32
2023-05-24T01:34:07.515Z,9.27
2023-05-24T01:35:07.509Z,9.27
2023-05-24T01:36:07.499Z,9.27
2023-05-24T01:37:07.493Z,9.37
2023-05-24T01:38:07.469Z,9.34
2023-05-24T01:39:07.481Z,9.32
2023-05-24T01:40:07.469Z,9.34
2023-05-24T01:41:07.451Z,9.38
2023-05-24T01:42:07.427Z,9.37
2023-05-24T01:43:07.420Z,9.38
2023-05-24T01:44:07.397Z,9.35
2023-05-24T01:45:07.398Z,9.42
2023-05-24T01:46:07.379Z,9.42
2023-05-24T01:47:07.556Z,9.40
2023-05-24T01:48:07.398Z,9.38
2023-05-24T01:49:07.346Z,-39.99
2023-05-24T01:50:07.336Z,-39.99
2023-05-24T01:51:07.327Z,-40.00
2023-05-24T01:52:07.338Z,9.40
2023-05-24T01:53:07.309Z,9.40
2023-05-24T01:54:07.296Z,9.41
2023-05-24T01:55:07.281Z,9.48
2023-05-24T01:56:07.292Z,9.42
2023-05-24T01:57:07.257Z,9.50
2023-05-24T01:58:07.248Z,9.44
2023-05-24T01:59:07.236Z,9.49
2023-05-24T02:00:07.220Z,9.49
2023-05-24T02:01:07.243Z,9.50
2023-05-24T02:02:07.233Z,9.48
2023-05-24T02:03:07.269Z,9.50
2023-05-24T02:04:07.187Z,9.49
2023-05-24T02:05:07.168Z,9.44
2023-05-24T02:06:07.153Z,9.50
2023-05-24T02:07:07.144Z,9.50
2023-05-24T02:08:07.128Z,9.48
2023-05-24T02:09:07.128Z,9.53
2023-05-24T02:10:07.113Z,9.55
2023-05-24T02:11:07.100Z,9.53
2023-05-24T02:12:07.118Z,9.56
2023-05-24T02:13:07.078Z,9.52
2023-05-24T02:14:07.067Z,9.58
2023-05-24T02:15:07.073Z,9.58
2023-05-24T02:16:07.045Z,9.55
2023-05-24T02:17:07.104Z,9.59
2023-05-24T02:18:07.085Z,9.59
2023-05-24T02:19:07.019Z,9.56
2023-05-24T02:20:07.032Z,9.58
2023-05-24T02:21:06.988Z,9.55
2023-05-24T02:22:06.980Z,9.59
2023-05-24T02:23:06.975Z,9.62
2023-05-24T02:24:06.989Z,9.62
2023-05-24T02:25:06.954Z,9.58
2023-05-24T02:26:06.935Z,9.63
2023-05-24T02:27:06.926Z,9.59
2023-05-24T02:28:06.942Z,9.59
2023-05-24T02:29:06.907Z,9.65
2023-05-24T02:30:06.890Z,9.65
2023-05-24T02:31:06.980Z,9.62
2023-05-24T02:32:06.866Z,9.59
2023-05-24T02:33:06.992Z,9.63
2023-05-24T02:34:06.845Z,9.59
2023-05-24T02:35:06.840Z,9.63
2023-05-24T02:36:06.825Z,9.58
2023-05-24T02:37:06.816Z,9.62
2023-05-24T02:38:06.863Z,9.62
2023-05-24T02:39:06.789Z,9.63
2023-05-24T02:40:06.779Z,9.58
2023-05-24T02:41:06.767Z,9.58
2023-05-24T02:42:06.754Z,9.56
2023-05-24T02:43:06.749Z,9.62
2023-05-24T02:44:06.769Z,9.59
2023-05-24T02:45:06.720Z,9.55
2023-05-24T02:46:06.728Z,9.60
2023-05-24T02:47:06.700Z,9.56
2023-05-24T02:48:06.729Z,9.58
2023-05-24T02:49:06.675Z,9.58
2023-05-24T02:50:06.677Z,9.52
2023-05-24T02:51:06.666Z,9.50
2023-05-24T02:52:06.642Z,9.55
2023-05-24T02:53:06.630Z,9.53
2023-05-24T02:54:06.629Z,9.52
2023-05-24T02:55:06.612Z,9.52
2023-05-24T02:56:06.592Z,9.50
2023-05-24T02:57:06.587Z,9.50
2023-05-24T02:58:06.575Z,9.48
2023-05-24T02:59:06.563Z,9.44
2023-05-24T03:00:06.572Z,9.42
2023-05-24T03:01:06.542Z,9.40
2023-05-24T03:02:06.643Z,9.40
2023-05-24T03:03:06.592Z,9.34
2023-05-24T03:04:06.533Z,9.40
2023-05-24T03:05:06.498Z,9.38
2023-05-24T03:06:06.481Z,9.40
2023-05-24T03:07:06.472Z,9.37
2023-05-24T03:08:06.457Z,9.40
2023-05-24T03:09:06.449Z,9.38
2023-05-24T03:10:06.454Z,9.41
2023-05-24T03:11:06.424Z,9.44
2023-05-24T03:12:06.454Z,9.40
2023-05-24T03:13:06.407Z,9.44
2023-05-24T03:14:06.401Z,9.44
2023-05-24T03:15:06.388Z,9.52
2023-05-24T03:16:06.469Z,9.55
2023-05-24T03:17:06.399Z,9.52
2023-05-24T03:18:06.519Z,9.49
2023-05-24T03:19:09.188Z,9.58
2023-05-24T03:20:06.517Z,9.52
2023-05-24T03:21:06.497Z,9.58
2023-05-24T03:22:06.473Z,9.59
2023-05-24T03:23:06.314Z,9.60
2023-05-24T03:24:06.288Z,9.56
2023-05-24T03:25:06.280Z,9.63
2023-05-24T03:26:06.258Z,9.58
2023-05-24T03:27:06.256Z,9.65
2023-05-24T03:28:06.238Z,9.60
2023-05-24T03:29:06.232Z,9.68
2023-05-24T03:30:06.216Z,9.62
2023-05-24T03:31:06.207Z,9.60
2023-05-24T03:32:06.266Z,9.67
2023-05-24T03:33:06.220Z,9.62
2023-05-24T03:34:06.166Z,9.60
2023-05-24T03:35:06.165Z,9.65
2023-05-24T03:36:06.147Z,9.62
2023-05-24T03:37:06.162Z,9.56
2023-05-24T03:38:06.135Z,9.58
2023-05-24T03:39:06.150Z,9.55
2023-05-24T03:40:06.110Z,9.52
2023-05-24T03:41:06.111Z,9.58
2023-05-24T03:42:06.085Z,9.50
2023-05-24T03:43:06.081Z,9.50
2023-05-24T03:44:06.085Z,9.55
2023-05-24T03:45:06.051Z,9.50
2023-05-24T03:46:06.073Z,9.52
2023-05-24T03:47:06.031Z,9.44
2023-05-24T03:48:06.096Z,9.41
2023-05-24T03:49:06.014Z,9.45
2023-05-24T03:50:05.990Z,9.42
2023-05-24T03:51:06.004Z,9.45
2023-05-24T03:52:05.978Z,9.40
2023-05-24T03:53:05.969Z,9.45
2023-05-24T03:54:05.946Z,9.48
2023-05-24T03:55:05.940Z,9.55
2023-05-24T03:56:05.935Z,9.49
2023-05-24T03:57:05.911Z,9.56
2023-05-24T03:58:05.912Z,9.53
2023-05-24T03:59:05.895Z,9.60
2023-05-24T04:00:05.875Z,9.62
2023-05-24T04:01:05.907Z,9.65
2023-05-24T04:02:05.904Z,9.67
2023-05-24T04:03:05.919Z,9.67
2023-05-24T04:04:05.928Z,9.68
2023-05-24T04:05:05.824Z,9.67
2023-05-24T04:06:05.810Z,9.74
2023-05-24T04:07:05.800Z,9.70
2023-05-24T04:08:05.796Z,9.71
2023-05-24T04:09:05.776Z,9.75
2023-05-24T04:10:05.763Z,9.77
2023-05-24T04:11:05.755Z,9.73
2023-05-24T04:12:05.743Z,9.78
2023-05-24T04:13:05.743Z,9.81
2023-05-24T04:14:05.719Z,9.83
2023-05-24T04:15:05.718Z,9.77
2023-05-24T04:16:05.702Z,9.77
2023-05-24T04:17:05.782Z,9.77
2023-05-24T04:18:05.799Z,9.77
2023-05-24T04:19:05.664Z,-40.00
2023-05-24T04:20:05.728Z,9.77
2023-05-24T04:21:05.641Z,9.81
2023-05-24T04:22:05.623Z,9.80
2023-05-24T04:23:05.618Z,9.75
2023-05-24T04:24:05.607Z,9.81
2023-05-24T04:25:05.668Z,9.83
2023-05-24T04:26:05.584Z,9.81
2023-05-24T04:27:05.569Z,9.86
2023-05-24T04:28:05.564Z,9.88
2023-05-24T04:29:05.557Z,9.89
2023-05-24T04:30:05.540Z,9.91
2023-05-24T04:31:05.535Z,9.89
2023-05-24T04:32:05.521Z,9.86
2023-05-24T04:33:05.591Z,9.95
2023-05-24T04:34:05.497Z,9.96
2023-05-24T04:35:05.486Z,9.93
2023-05-24T04:36:05.512Z,9.98
2023-05-24T04:37:05.463Z,9.92
2023-05-24T04:38:05.461Z,9.99
2023-05-24T04:39:05.452Z,9.95
2023-05-24T04:40:05.444Z,9.99
2023-05-24T04:41:05.432Z,10.04
2023-05-24T04:42:05.420Z,9.98
2023-05-24T04:43:05.397Z,10.07
2023-05-24T04:44:05.390Z,10.07
2023-05-24T04:45:05.384Z,10.01
2023-05-24T04:46:06.899Z,10.09
2023-05-24T04:47:05.528Z,10.10
2023-05-24T04:48:05.378Z,10.09
2023-05-24T04:49:05.329Z,10.14
2023-05-24T04:50:05.323Z,10.11
2023-05-24T04:51:05.307Z,10.09
2023-05-24T04:52:05.323Z,10.14
2023-05-24T04:53:05.290Z,10.09
2023-05-24T04:54:05.277Z,10.09
2023-05-24T04:55:05.263Z,10.09
2023-05-24T04:56:05.252Z,10.07
2023-05-24T04:57:05.268Z,10.11
2023-05-24T04:58:05.256Z,10.07
2023-05-24T04:59:05.218Z,10.11
2023-05-24T05:00:05.209Z,10.09
2023-05-24T05:01:05.199Z,10.10
2023-05-24T05:02:05.294Z,10.10
2023-05-24T05:03:05.284Z,10.09
2023-05-24T05:04:05.302Z,10.07
2023-05-24T05:05:05.183Z,10.02
2023-05-24T05:06:05.141Z,9.99
2023-05-24T05:07:05.142Z,10.02
2023-05-24T05:08:05.143Z,10.01
2023-05-24T05:09:05.102Z,10.02
2023-05-24T05:10:05.112Z,9.99
2023-05-24T05:11:05.082Z,9.99
2023-05-24T05:12:05.072Z,10.02
2023-05-24T05:13:05.090Z,10.01
2023-05-24T05:14:05.051Z,9.99
2023-05-24T05:15:05.039Z,10.01
2023-05-24T05:16:05.089Z,9.95
2023-05-24T05:17:05.011Z,9.98
2023-05-24T05:18:05.038Z,10.02
2023-05-24T05:19:05.004Z,9.98
2023-05-24T05:20:05.035Z,10.02
2023-05-24T05:21:04.976Z,10.10
2023-05-24T05:22:04.959Z,10.07
2023-05-24T05:23:04.948Z,10.02
2023-05-24T05:24:05.011Z,10.01
2023-05-24T05:25:04.926Z,10.06
2023-05-24T05:26:04.912Z,10.01
2023-05-24T05:27:04.901Z,9.98
2023-05-24T05:28:04.892Z,10.01
2023-05-24T05:29:04.883Z,9.98
2023-05-24T05:30:04.890Z,9.98
2023-05-24T05:31:04.855Z,10.02
2023-05-24T05:32:04.923Z,10.06
2023-05-24T05:33:04.907Z,10.06
2023-05-24T05:34:04.832Z,10.02
2023-05-24T05:35:04.817Z,10.09
2023-05-24T05:36:04.805Z,10.09
2023-05-24T05:37:04.790Z,10.16
2023-05-24T05:38:04.783Z,10.13
2023-05-24T05:39:04.776Z,10.17
2023-05-24T05:40:04.787Z,10.17
2023-05-24T05:41:04.753Z,10.20
2023-05-24T05:42:04.750Z,10.20
2023-05-24T05:43:04.744Z,10.22
2023-05-24T05:44:04.716Z,10.20
2023-05-24T05:45:04.711Z,10.25
2023-05-24T05:46:04.755Z,10.24
2023-05-24T05:47:04.682Z,10.26
2023-05-24T05:48:04.717Z,10.18
2023-05-24T05:49:04.679Z,10.34
2023-05-24T05:50:04.655Z,10.34
2023-05-24T05:51:04.644Z,10.43
2023-05-24T05:52:04.630Z,10.34
2023-05-24T05:53:04.612Z,10.36
2023-05-24T05:54:04.604Z,10.36
2023-05-24T05:55:04.603Z,10.38
2023-05-24T05:56:04.676Z,10.42
2023-05-24T05:57:04.579Z,10.36
2023-05-24T05:58:04.567Z,10.35
2023-05-24T05:59:04.548Z,10.39
2023-05-24T06:00:04.542Z,10.35
2023-05-24T06:01:04.533Z,10.36
2023-05-24T06:02:04.557Z,10.43
2023-05-24T06:03:04.596Z,10.35
2023-05-24T06:04:04.532Z,10.34
2023-05-24T06:05:04.480Z,10.42
2023-05-24T06:06:04.468Z,10.39
2023-05-24T06:07:04.473Z,10.42
2023-05-24T06:08:04.445Z,10.36
2023-05-24T06:09:04.439Z,10.43
2023-05-24T06:10:04.435Z,10.43
2023-05-24T06:11:04.424Z,10.43
2023-05-24T06:12:04.424Z,10.39
2023-05-24T06:13:04.394Z,10.44
2023-05-24T06:14:04.388Z,10.36
2023-05-24T06:15:04.385Z,10.46
2023-05-24T06:16:04.397Z,10.55
2023-05-24T06:17:04.346Z,10.55
2023-05-24T06:18:04.394Z,10.60
2023-05-24T06:19:06.327Z,10.63
2023-05-24T06:20:04.342Z,10.58
2023-05-24T06:21:04.298Z,10.62
2023-05-24T06:22:04.291Z,10.68
2023-05-24T06:23:04.279Z,10.63
2023-05-24T06:24:04.273Z,10.68
2023-05-24T06:25:04.260Z,10.65
2023-05-24T06:26:04.245Z,10.65
2023-05-24T06:27:05.587Z,10.68
2023-05-24T06:28:04.247Z,10.73
2023-05-24T06:29:04.215Z,10.70
2023-05-24T06:30:04.319Z,10.65
2023-05-24T06:31:04.241Z,10.69
2023-05-24T06:32:04.181Z,10.68
2023-05-24T06:33:04.221Z,10.72
2023-05-24T06:34:04.811Z,10.83
2023-05-24T06:35:04.150Z,10.83
2023-05-24T06:36:04.138Z,10.86
2023-05-24T06:37:04.132Z,10.83
2023-05-24T06:38:04.126Z,10.80
2023-05-24T06:39:04.116Z,10.83
2023-05-24T06:40:04.165Z,10.78
2023-05-24T06:41:04.085Z,10.83
2023-05-24T06:42:04.073Z,10.81
2023-05-24T06:43:04.054Z,10.73
2023-05-24T06:44:04.169Z,10.70
2023-05-24T06:45:04.064Z,10.78
2023-05-24T06:46:04.192Z,10.73
2023-05-24T06:47:04.046Z,10.76
2023-05-24T06:48:04.080Z,10.83
2023-05-24T06:49:04.081Z,10.87
2023-05-24T06:50:03.988Z,10.84
2023-05-24T06:51:03.969Z,10.93
2023-05-24T06:52:03.996Z,10.91
2023-05-24T06:53:03.947Z,10.95
2023-05-24T06:54:03.934Z,11.02
2023-05-24T06:55:03.919Z,10.94
2023-05-24T06:56:03.915Z,11.01
2023-05-24T06:57:03.924Z,11.06
2023-05-24T06:58:03.890Z,11.09
2023-05-24T06:59:03.896Z,11.09
2023-05-24T07:00:03.940Z,11.06
2023-05-24T07:01:03.930Z,11.09
2023-05-24T07:02:04.353Z,11.12
2023-05-24T07:03:03.915Z,11.20
2023-05-24T07:04:03.869Z,11.19
2023-05-24T07:05:03.851Z,11.28
2023-05-24T07:06:03.794Z,11.24
2023-05-24T07:07:03.797Z,11.23
2023-05-24T07:08:03.772Z,11.31
2023-05-24T07:09:03.760Z,11.27
2023-05-24T07:10:03.750Z,11.30
2023-05-24T07:11:03.768Z,11.33
2023-05-24T07:12:03.738Z,11.33
2023-05-24T07:13:03.715Z,11.33
2023-05-24T07:14:03.709Z,11.45
2023-05-24T07:15:03.686Z,11.51
2023-05-24T07:16:03.720Z,11.46
2023-05-24T07:17:03.783Z,11.51
2023-05-24T07:18:03.684Z,11.49
2023-05-24T07:19:04.860Z,11.49
2023-05-24T07:20:03.870Z,11.39
2023-05-24T07:21:03.626Z,11.41
2023-05-24T07:22:03.616Z,11.46
2023-05-24T07:23:03.603Z,11.51
2023-05-24T07:24:03.597Z,11.56
2023-05-24T07:25:03.583Z,11.49
2023-05-24T07:26:03.577Z,11.56
2023-05-24T07:27:03.556Z,11.64
2023-05-24T07:28:03.574Z,11.70
2023-05-24T07:29:03.540Z,11.78
2023-05-24T07:30:03.529Z,-39.99
2023-05-24T07:31:03.515Z,11.85
2023-05-24T07:32:03.551Z,11.94
2023-05-24T07:33:03.882Z,12.05
2023-05-24T07:34:03.486Z,-39.99
2023-05-24T07:35:03.473Z,-39.99
2023-05-24T07:36:03.459Z,-39.99
2023-05-24T07:37:03.459Z,-39.99
2023-05-24T07:38:03.437Z,-39.99
2023-05-24T07:39:03.422Z,-39.99
2023-05-24T07:40:03.427Z,-39.99
2023-05-24T07:41:03.396Z,-39.99
2023-05-24T07:42:03.395Z,12.22
2023-05-24T07:43:04.331Z,12.22
2023-05-24T07:44:03.380Z,12.23
2023-05-24T07:45:03.365Z,12.23
2023-05-24T07:46:03.384Z,12.30
2023-05-24T07:47:03.362Z,12.33
2023-05-24T07:48:03.381Z,12.34
2023-05-24T07:49:03.322Z,12.33
2023-05-24T07:50:03.302Z,12.26
2023-05-24T07:51:03.288Z,12.23
2023-05-24T07:52:03.284Z,12.22
2023-05-24T07:53:03.272Z,12.26
2023-05-24T07:54:03.252Z,12.31
2023-05-24T07:55:03.248Z,12.36
2023-05-24T07:56:03.278Z,12.41
2023-05-24T07:57:03.223Z,12.43
2023-05-24T07:58:03.208Z,12.34
2023-05-24T07:59:03.203Z,12.31
2023-05-24T08:00:03.201Z,12.38
2023-05-24T08:01:03.175Z,12.37
2023-05-24T08:02:03.173Z,12.33
2023-05-24T08:03:03.272Z,12.36
2023-05-24T08:04:03.542Z,12.37
2023-05-24T08:05:03.133Z,12.41
2023-05-24T08:06:03.119Z,12.38
2023-05-24T08:07:03.129Z,12.44
2023-05-24T08:08:03.147Z,12.51
2023-05-24T08:09:03.082Z,12.54
2023-05-24T08:10:03.079Z,12.56
2023-05-24T08:11:03.077Z,12.58
2023-05-24T08:12:03.057Z,12.59
2023-05-24T08:13:03.048Z,12.61
2023-05-24T08:14:03.034Z,12.61
2023-05-24T08:15:03.017Z,12.69
2023-05-24T08:16:03.033Z,12.59
2023-05-24T08:17:03.026Z,12.55
2023-05-24T08:18:03.015Z,12.52
2023-05-24T08:19:02.978Z,12.58
2023-05-24T08:20:03.045Z,12.66
2023-05-24T08:21:02.948Z,12.71
2023-05-24T08:22:02.939Z,12.71
2023-05-24T08:23:02.926Z,12.67
2023-05-24T08:24:02.926Z,12.77
2023-05-24T08:25:02.905Z,12.85
2023-05-24T08:26:02.902Z,12.84
2023-05-24T08:27:02.891Z,12.87
2023-05-24T08:28:02.917Z,12.85
2023-05-24T08:29:02.865Z,12.80
2023-05-24T08:30:02.870Z,12.85
2023-05-24T08:31:02.840Z,12.92
2023-05-24T08:32:02.907Z,12.89
2023-05-24T08:33:02.849Z,12.96
2023-05-24T08:34:02.809Z,13.10
2023-05-24T08:35:18.409Z,13.19
2023-05-24T08:36:03.101Z,13.24
2023-05-24T08:37:02.776Z,13.17
2023-05-24T08:38:02.773Z,13.14
2023-05-24T08:39:02.748Z,13.06
2023-05-24T08:40:02.741Z,13.01
2023-05-24T08:41:02.727Z,13.10
2023-05-24T08:43:02.706Z,13.12
2023-05-24T08:44:02.704Z,13.13
2023-05-24T08:45:02.682Z,13.06
2023-05-24T08:46:02.687Z,12.98
2023-05-24T08:47:02.679Z,12.98
2023-05-24T08:48:02.697Z,13.03
2023-05-24T08:49:02.710Z,13.04
2023-05-24T08:50:02.633Z,12.89
2023-05-24T08:51:02.625Z,12.91
2023-05-24T08:52:02.636Z,12.87
2023-05-24T08:53:02.592Z,12.88
2023-05-24T08:54:02.582Z,12.84
2023-05-24T08:55:02.571Z,12.81
2023-05-24T08:56:02.566Z,12.79
2023-05-24T08:57:02.547Z,12.71
2023-05-24T08:58:02.564Z,12.69
2023-05-24T08:59:02.538Z,12.77
2023-05-24T09:00:02.620Z,12.79
2023-05-24T09:01:02.603Z,12.70
2023-05-24T09:02:02.568Z,12.63
2023-05-24T09:03:02.589Z,12.70
2023-05-24T09:04:02.528Z,12.76
2023-05-24T09:05:02.489Z,12.85
2023-05-24T09:06:02.452Z,12.94
2023-05-24T09:07:02.441Z,12.99
2023-05-24T09:08:02.520Z,12.96
2023-05-24T09:09:02.422Z,13.06
2023-05-24T09:10:02.410Z,13.06
2023-05-24T09:11:02.393Z,13.17
2023-05-24T09:12:02.386Z,13.14
2023-05-24T09:13:02.380Z,13.19
2023-05-24T09:14:02.384Z,13.27
2023-05-24T09:15:02.352Z,13.27
2023-05-24T09:16:02.386Z,13.27
2023-05-24T09:17:02.361Z,13.28
2023-05-24T09:18:02.334Z,13.27
2023-05-24T09:19:02.316Z,13.22
2023-05-24T09:20:02.373Z,13.29
2023-05-24T09:21:02.280Z,13.16
2023-05-24T09:22:02.267Z,13.14
2023-05-24T09:23:02.399Z,13.17
2023-05-24T09:24:02.319Z,13.17
2023-05-24T09:25:02.237Z,13.17
2023-05-24T09:26:02.218Z,13.24
2023-05-24T09:27:02.207Z,13.14
2023-05-24T09:28:02.206Z,13.13
2023-05-24T09:29:02.183Z,13.28
2023-05-24T09:30:02.167Z,13.47
2023-05-24T09:31:04.561Z,13.57
2023-05-24T09:32:02.262Z,13.69
2023-05-24T09:33:02.259Z,13.83
2023-05-24T09:34:02.134Z,13.83
2023-05-24T09:35:02.118Z,13.86
2023-05-24T09:36:02.114Z,13.84
2023-05-24T09:37:02.109Z,13.94
2023-05-24T09:38:02.076Z,14.02
2023-05-24T09:39:02.070Z,14.01
2023-05-24T09:40:02.090Z,14.16
2023-05-24T09:41:02.053Z,14.30
2023-05-24T09:42:02.047Z,14.44
2023-05-24T09:43:02.029Z,14.60
2023-05-24T09:44:02.010Z,14.69
2023-05-24T09:45:02.009Z,14.74
2023-05-24T09:46:01.997Z,14.61
2023-05-24T09:47:02.036Z,14.67
2023-05-24T09:48:02.024Z,14.85
2023-05-24T09:49:02.110Z,14.82
2023-05-24T09:50:01.963Z,14.64
2023-05-24T09:51:01.994Z,14.82
2023-05-24T09:52:01.997Z,14.98
2023-05-24T09:53:01.915Z,15.23
2023-05-24T09:54:01.926Z,15.40
2023-05-24T09:55:01.891Z,15.48
2023-05-24T09:56:02.072Z,15.51
2023-05-24T09:57:03.463Z,15.28
2023-05-24T09:58:01.866Z,15.23
2023-05-24T09:59:01.850Z,15.28
2023-05-24T10:00:01.919Z,15.48
2023-05-24T10:01:01.896Z,15.51
2023-05-24T10:02:01.817Z,15.81
2023-05-24T10:03:01.905Z,16.11
2023-05-24T10:04:01.991Z,16.33
2023-05-24T10:05:01.802Z,16.44
2023-05-24T10:06:01.774Z,16.22
2023-05-24T10:07:01.758Z,16.27
2023-05-24T10:08:01.749Z,16.60
2023-05-24T10:09:01.751Z,16.77
2023-05-24T10:10:01.741Z,17.03
2023-05-24T10:11:01.731Z,17.57
2023-05-24T10:12:01.761Z,17.62
2023-05-24T10:13:01.737Z,17.62
2023-05-24T10:14:01.709Z,17.55
2023-05-24T10:15:01.694Z,17.09
2023-05-24T10:16:01.674Z,16.95
2023-05-24T10:17:01.709Z,16.73
2023-05-24T10:18:01.878Z,16.37
2023-05-24T10:19:01.629Z,16.14
2023-05-24T10:20:01.747Z,16.13
2023-05-24T10:21:01.997Z,16.23
2023-05-24T10:22:01.692Z,15.95
2023-05-24T10:23:02.109Z,15.78
2023-05-24T10:24:01.693Z,15.84
2023-05-24T10:25:01.686Z,15.55
2023-05-24T10:26:01.679Z,15.48
2023-05-24T10:27:01.559Z,15.40
2023-05-24T10:28:01.659Z,15.44
2023-05-24T10:29:01.525Z,15.40
2023-05-24T10:30:01.520Z,15.22
2023-05-24T10:31:01.658Z,15.09
2023-05-24T10:32:01.481Z,14.93
2023-05-24T10:33:01.533Z,14.83
2023-05-24T10:34:07.963Z,14.80
2023-05-24T10:35:02.527Z,14.78
2023-05-24T10:36:01.462Z,14.83
2023-05-24T10:37:01.426Z,14.93
2023-05-24T10:38:01.429Z,14.97
2023-05-24T10:39:01.407Z,15.11
2023-05-24T10:40:01.396Z,15.16
2023-05-24T10:41:01.399Z,15.31
2023-05-24T10:42:01.382Z,15.51
2023-05-24T10:43:01.356Z,15.64
2023-05-24T10:44:09.923Z,15.73
2023-05-24T10:45:02.533Z,15.56
2023-05-24T10:46:01.388Z,15.48
2023-05-24T10:47:01.323Z,15.52
2023-05-24T10:48:01.321Z,15.58
2023-05-24T10:49:01.289Z,15.55
2023-05-24T10:50:01.283Z,15.41
2023-05-24T10:51:01.302Z,15.60
2023-05-24T10:52:01.275Z,15.80
2023-05-24T10:53:01.248Z,15.91
2023-05-24T10:54:01.227Z,15.81
2023-05-24T10:55:04.336Z,15.51
2023-05-24T10:56:01.221Z,15.38
2023-05-24T10:57:01.200Z,15.52
2023-05-24T10:58:01.196Z,15.71
2023-05-24T10:59:01.181Z,15.77
2023-05-24T11:00:01.224Z,15.81
2023-05-24T11:01:01.162Z,15.59
2023-05-24T11:02:01.327Z,15.40
2023-05-24T11:03:01.217Z,15.37
2023-05-24T11:04:01.131Z,15.46
2023-05-24T11:05:01.133Z,15.58
2023-05-24T11:06:01.184Z,15.53
2023-05-24T11:07:01.111Z,15.59
2023-05-24T11:08:01.098Z,15.77
2023-05-24T11:09:01.106Z,15.70
2023-05-24T11:10:01.076Z,15.68
2023-05-24T11:11:11.492Z,15.30
2023-05-24T11:12:02.074Z,15.25
2023-05-24T11:13:01.046Z,15.13
2023-05-24T11:14:01.017Z,15.11
2023-05-24T11:15:01.001Z,15.18
2023-05-24T11:16:01.047Z,15.33
2023-05-24T11:17:00.985Z,15.44
2023-05-24T11:18:01.023Z,15.58
2023-05-24T11:19:00.967Z,15.71
2023-05-24T11:20:01.000Z,15.81
2023-05-24T11:21:00.941Z,15.91
2023-05-24T11:22:00.924Z,15.88
2023-05-24T11:23:00.914Z,15.89
2023-05-24T11:24:00.910Z,15.89
2023-05-24T11:25:00.896Z,15.92
2023-05-24T11:26:00.877Z,16.07
2023-05-24T11:27:00.872Z,16.08
2023-05-24T11:28:00.911Z,16.13
2023-05-24T11:29:04.091Z,16.14
2023-05-24T11:30:00.853Z,16.08
2023-05-24T11:31:00.828Z,15.88
2023-05-24T11:32:00.897Z,15.73
2023-05-24T11:33:00.838Z,15.66
2023-05-24T11:34:00.787Z,15.60
2023-05-24T11:35:00.798Z,15.56
2023-05-24T11:36:00.781Z,15.48
2023-05-24T11:37:00.753Z,15.41
2023-05-24T11:38:00.754Z,15.28
2023-05-24T11:39:00.734Z,15.15
2023-05-24T11:40:00.722Z,15.00
2023-05-24T11:41:00.714Z,14.98
2023-05-24T11:42:00.703Z,14.87
2023-05-24T11:43:00.692Z,14.83
2023-05-24T11:44:00.690Z,14.78
2023-05-24T11:45:00.668Z,14.79
2023-05-24T11:46:00.740Z,14.80
2023-05-24T11:47:00.685Z,14.78
2023-05-24T11:48:00.750Z,14.67
2023-05-24T11:49:00.621Z,14.67
2023-05-24T11:50:00.612Z,14.79
2023-05-24T11:51:00.601Z,14.90
2023-05-24T11:52:00.585Z,14.93
2023-05-24T11:53:00.592Z,14.82
2023-05-24T11:54:00.584Z,14.79
2023-05-24T11:55:00.562Z,14.67
2023-05-24T11:56:00.544Z,14.66
2023-05-24T11:57:00.548Z,14.69
2023-05-24T11:58:00.528Z,14.78
2023-05-24T11:59:00.515Z,14.86
2023-05-24T12:00:00.513Z,14.87
2023-05-24T12:01:00.488Z,14.94
2023-05-24T12:02:00.579Z,15.01
2023-05-24T12:03:00.545Z,14.98
2023-05-24T12:04:00.570Z,15.00
2023-05-24T12:05:00.673Z,15.05
2023-05-24T12:06:00.437Z,15.12
2023-05-24T12:07:00.423Z,15.16
2023-05-24T12:08:00.404Z,15.22
2023-05-24T12:09:00.396Z,15.25
2023-05-24T12:10:00.390Z,15.33
2023-05-24T12:11:00.373Z,15.46
2023-05-24T12:12:00.363Z,15.52
2023-05-24T12:13:00.355Z,15.41
2023-05-24T12:14:00.336Z,15.30
2023-05-24T12:15:00.340Z,15.18
2023-05-24T12:16:00.346Z,15.20
2023-05-24T12:17:00.315Z,15.31
2023-05-24T12:18:00.368Z,15.38
2023-05-24T12:19:05.805Z,15.41
2023-05-24T12:20:01.477Z,15.20
2023-05-24T12:21:00.271Z,15.30
2023-05-24T12:22:00.465Z,15.37
2023-05-24T12:23:00.241Z,15.15
2023-05-24T12:24:00.232Z,15.03
2023-05-24T12:25:00.226Z,15.09
2023-05-24T12:26:00.215Z,15.05
2023-05-24T12:27:00.193Z,15.09
2023-05-24T12:28:00.195Z,15.16
2023-05-24T12:29:00.184Z,15.11
2023-05-24T12:30:00.223Z,15.15
2023-05-24T12:31:00.230Z,15.15
2023-05-24T12:32:00.184Z,15.22
2023-05-24T12:33:00.243Z,15.27
2023-05-24T12:34:00.166Z,15.40
2023-05-24T12:35:00.146Z,15.59
2023-05-24T12:36:00.171Z,15.56
2023-05-24T12:37:00.104Z,15.53
2023-05-24T12:38:00.091Z,15.44
2023-05-24T12:39:00.090Z,15.25
2023-05-24T12:40:00.076Z,15.33
2023-05-24T12:41:12.210Z,15.28
2023-05-24T12:42:00.042Z,-39.99
2023-05-24T12:43:00.025Z,15.16
2023-05-24T12:44:00.008Z,15.07
2023-05-24T12:44:59.996Z,14.90
2023-05-24T12:45:59.983Z,14.82
2023-05-24T12:47:00.087Z,14.79
2023-05-24T12:47:59.995Z,14.74
2023-05-24T12:48:59.953Z,14.85
2023-05-24T12:49:59.939Z,14.94
2023-05-24T12:50:59.939Z,14.90
2023-05-24T12:51:59.973Z,14.94
2023-05-24T12:52:59.920Z,15.04
2023-05-24T12:53:59.896Z,15.20
2023-05-24T12:54:59.895Z,15.19
2023-05-24T12:55:59.871Z,15.19
2023-05-24T12:57:00.157Z,15.30
2023-05-24T12:57:59.858Z,15.15
2023-05-24T12:58:59.846Z,15.12
2023-05-24T12:59:59.829Z,15.12
2023-05-24T13:00:59.872Z,15.18
2023-05-24T13:01:59.807Z,15.11